createdAt,value
2023-02-08T00:00:01.247Z,101341.75
2023-02-08T00:02:27.778Z,101339.63
2023-02-08T00:04:54.234Z,101329.84
2023-02-08T00:07:20.648Z,101325.59
2023-02-08T00:09:47.137Z,101319.44
2023-02-08T00:12:13.557Z,101315.31
2023-02-08T00:14:39.975Z,101315.16
2023-02-08T00:17:06.460Z,101316.81
2023-02-08T00:19:32.855Z,101320.50
2023-02-08T00:21:59.289Z,101318.69
2023-02-08T00:24:25.737Z,101316.75
2023-02-08T00:26:52.234Z,101319.06
2023-02-08T00:29:18.646Z,101305.38
2023-02-08T00:31:45.087Z,101311.47
2023-02-08T00:34:11.531Z,101312.91
2023-02-08T00:36:37.943Z,101315.59
2023-02-08T00:39:04.409Z,101324.97
2023-02-08T00:41:31.007Z,101319.59
2023-02-08T00:43:57.450Z,101331.88
2023-02-08T00:46:23.950Z,101324.13
2023-02-08T00:48:50.373Z,101321.59
2023-02-08T00:51:16.888Z,101325.59
2023-02-08T00:53:44.996Z,101322.34
2023-02-08T00:56:12.840Z,101328.50
2023-02-08T00:58:39.401Z,101333.00
2023-02-08T01:01:07.144Z,101324.91
2023-02-08T01:03:35.293Z,101329.91
2023-02-08T01:06:03.336Z,101321.84
2023-02-08T01:08:29.843Z,101324.00
2023-02-08T01:11:28.665Z,101326.78
2023-02-08T01:13:57.484Z,101320.25
2023-02-08T01:16:29.118Z,101324.91
2023-02-08T01:18:56.921Z,101320.97
2023-02-08T01:21:26.837Z,101321.47
2023-02-08T01:23:53.721Z,101321.66
2023-02-08T01:26:21.020Z,101318.78
2023-02-08T01:28:48.239Z,101314.66
2023-02-08T01:31:21.054Z,101310.91
2023-02-08T01:33:48.228Z,101309.66
2023-02-08T01:36:15.157Z,101308.00
2023-02-08T01:38:42.037Z,101316.31
2023-02-08T01:41:13.958Z,101309.44
2023-02-08T01:44:17.516Z,101314.13
2023-02-08T01:46:50.979Z,101312.63
2023-02-08T01:49:26.435Z,101308.03
2023-02-08T01:51:54.238Z,101305.47
2023-02-08T01:54:22.338Z,101314.44
2023-02-08T01:56:49.409Z,101313.75
2023-02-08T01:59:23.753Z,101310.31
2023-02-08T02:01:52.173Z,101307.25
2023-02-08T02:04:18.721Z,101318.78
2023-02-08T02:06:48.330Z,101306.75
2023-02-08T02:09:19.823Z,101307.59
2023-02-08T02:11:46.553Z,101304.69
2023-02-08T02:14:13.088Z,101302.19
2023-02-08T02:16:39.490Z,101291.38
2023-02-08T02:19:12.873Z,101286.88
2023-02-08T02:21:48.296Z,101298.38
2023-02-08T02:24:33.569Z,101287.78
2023-02-08T02:27:15.083Z,101288.16
2023-02-08T02:30:02.015Z,101280.56
2023-02-08T02:32:34.225Z,101277.66
2023-02-08T02:35:15.864Z,101280.56
2023-02-08T02:37:57.543Z,101280.56
2023-02-08T02:40:49.986Z,101274.75
2023-02-08T02:43:42.737Z,101281.25
2023-02-08T02:46:29.452Z,101276.22
2023-02-08T02:49:02.959Z,101278.72
2023-02-08T02:51:32.270Z,101276.22
2023-02-08T02:54:20.322Z,101273.69
2023-02-08T02:56:50.181Z,101275.50
2023-02-08T02:59:16.866Z,101270.47
2023-02-08T03:01:45.108Z,101273.00
2023-02-08T03:04:39.406Z,101265.78
2023-02-08T03:07:18.376Z,101265.78
2023-02-08T03:10:03.067Z,101262.94
2023-02-08T03:12:32.520Z,101265.63
2023-02-08T03:15:19.144Z,101255.88
2023-02-08T03:18:09.718Z,101259.47
2023-02-08T03:20:41.909Z,101253.91
2023-02-08T03:23:41.839Z,101256.09
2023-02-08T03:26:20.524Z,101252.47
2023-02-08T03:29:10.607Z,101254.63
2023-02-08T03:31:43.552Z,101249.59
2023-02-08T03:34:25.164Z,101247.44
2023-02-08T03:36:59.654Z,101260.38
2023-02-08T03:39:30.185Z,101262.38
2023-02-08T03:41:59.846Z,101265.78
2023-02-08T03:44:30.703Z,101266.38
2023-02-08T03:47:00.529Z,101264.50
2023-02-08T03:49:31.226Z,101259.28
2023-02-08T03:52:01.350Z,101254.25
2023-02-08T03:54:30.307Z,101247.94
2023-02-08T03:57:10.554Z,101251.38
2023-02-08T03:59:40.330Z,101244.00
2023-02-08T04:02:08.951Z,101246.69
2023-02-08T04:04:37.703Z,101242.91
2023-02-08T04:07:05.016Z,101244.88
2023-02-08T04:09:31.458Z,101249.94
2023-02-08T04:11:57.890Z,101250.28
2023-02-08T04:14:24.323Z,101250.44
2023-02-08T04:16:50.779Z,101249.13
2023-02-08T04:19:17.200Z,101247.91
2023-02-08T04:21:43.604Z,101250.06
2023-02-08T04:24:10.081Z,101243.97
2023-02-08T04:26:36.513Z,101249.31
2023-02-08T04:29:02.960Z,101248.97
2023-02-08T04:31:29.566Z,101252.91
2023-02-08T04:33:56.159Z,101244.78
2023-02-08T04:36:22.549Z,101249.88
2023-02-08T04:38:49.240Z,101246.44
2023-02-08T04:41:15.753Z,101246.25
2023-02-08T04:43:42.188Z,101241.16
2023-02-08T04:46:08.649Z,101236.53
2023-02-08T04:48:35.174Z,101231.50
2023-02-08T04:51:01.626Z,101237.22
2023-02-08T04:53:28.038Z,101232.53
2023-02-08T04:55:54.514Z,101237.56
2023-02-08T04:58:20.997Z,101231.03
2023-02-08T05:00:47.562Z,101229.63
2023-02-08T05:03:15.033Z,101227.47
2023-02-08T05:05:41.495Z,101228.91
2023-02-08T05:08:08.101Z,101229.03
2023-02-08T05:10:34.683Z,101226.53
2023-02-08T05:13:01.132Z,101225.28
2023-02-08T05:15:27.569Z,101221.31
2023-02-08T05:17:54.008Z,101222.59
2023-02-08T05:20:21.539Z,101220.94
2023-02-08T05:22:47.960Z,101223.47
2023-02-08T05:25:14.450Z,101227.44
2023-02-08T05:27:40.843Z,101229.03
2023-02-08T05:30:07.729Z,101227.47
2023-02-08T05:32:34.158Z,101224.91
2023-02-08T05:35:00.549Z,101225.94
2023-02-08T05:37:27.081Z,101226.16
2023-02-08T05:39:53.622Z,101227.22
2023-02-08T05:42:20.047Z,101227.22
2023-02-08T05:44:46.570Z,101234.25
2023-02-08T05:47:12.990Z,101233.06
2023-02-08T05:49:39.390Z,101233.19
2023-02-08T05:52:05.828Z,101231.44
2023-02-08T05:54:32.242Z,101238.06
2023-02-08T05:56:58.625Z,101232.47
2023-02-08T05:59:25.035Z,101238.06
2023-02-08T06:01:51.566Z,101235.66
2023-02-08T06:04:17.998Z,101237.47
2023-02-08T06:06:44.474Z,101239.94
2023-02-08T06:09:10.968Z,101243.59
2023-02-08T06:11:37.584Z,101240.69
2023-02-08T06:14:04.081Z,101249.00
2023-02-08T06:16:30.576Z,101242.13
2023-02-08T06:18:57.038Z,101238.31
2023-02-08T06:21:24.568Z,101243.56
2023-02-08T06:23:51.126Z,101245.34
2023-02-08T06:26:17.551Z,101249.38
2023-02-08T06:28:43.934Z,101252.97
2023-02-08T06:31:10.386Z,101255.31
2023-02-08T06:33:36.922Z,101259.81
2023-02-08T06:36:03.417Z,101258.38
2023-02-08T06:38:29.857Z,101260.19
2023-02-08T06:40:56.301Z,101257.47
2023-02-08T06:43:22.804Z,101245.41
2023-02-08T06:45:49.370Z,101257.69
2023-02-08T06:48:15.906Z,101265.78
2023-02-08T06:50:42.737Z,101255.16
2023-02-08T06:53:09.478Z,101252.63
2023-02-08T06:55:35.878Z,101258.25
2023-02-08T06:58:02.277Z,101264.53
2023-02-08T07:00:28.844Z,101265.94
2023-02-08T07:02:55.339Z,101267.56
2023-02-08T07:05:21.821Z,101266.25
2023-02-08T07:07:48.850Z,101262.28
2023-02-08T07:10:16.172Z,101268.09
2023-02-08T07:12:42.632Z,101254.78
2023-02-08T07:15:09.501Z,101265.03
2023-02-08T07:17:35.891Z,101263.75
2023-02-08T07:20:02.299Z,101265.56
2023-02-08T07:22:28.768Z,101264.53
2023-02-08T07:24:55.245Z,101264.69
2023-02-08T07:27:21.928Z,101263.94
2023-02-08T07:29:48.838Z,101267.38
2023-02-08T07:32:15.280Z,101261.84
2023-02-08T07:34:41.754Z,101266.72
2023-02-08T07:37:08.436Z,101263.84
2023-02-08T07:39:34.824Z,101266.53
2023-02-08T07:42:01.228Z,101270.31
2023-02-08T07:44:27.758Z,101258.47
2023-02-08T07:46:54.130Z,101263.53
2023-02-08T07:49:20.545Z,101264.25
2023-02-08T07:51:46.953Z,101265.19
2023-02-08T07:54:13.353Z,101258.53
2023-02-08T07:56:39.864Z,101262.19
2023-02-08T07:59:06.574Z,101260.75
2023-02-08T08:01:33.069Z,101255.72
2023-02-08T08:03:59.553Z,101254.25
2023-02-08T08:06:26.076Z,101258.81
2023-02-08T08:08:52.553Z,101253.41
2023-02-08T08:11:20.004Z,101252.91
2023-02-08T08:13:46.500Z,101249.50
2023-02-08T08:16:13.213Z,101246.44
2023-02-08T08:18:39.768Z,101245.41
2023-02-08T08:21:06.480Z,101251.72
2023-02-08T08:23:33.370Z,101239.66
2023-02-08T08:26:00.796Z,101228.88
2023-02-08T08:28:27.841Z,101233.59
2023-02-08T08:30:54.576Z,101237.56
2023-02-08T08:33:21.149Z,101244.09
2023-02-08T08:35:47.652Z,101238.16
2023-02-08T08:38:14.101Z,101240.19
2023-02-08T08:40:41.030Z,101239.28
2023-02-08T08:43:07.675Z,101232.06
2023-02-08T08:45:36.161Z,101235.13
2023-02-08T08:48:05.770Z,101234.94
2023-02-08T08:50:32.299Z,101238.75
2023-02-08T08:52:58.751Z,101235.16
2023-02-08T08:55:25.912Z,101223.25
2023-02-08T08:57:53.452Z,101222.53
2023-02-08T09:00:19.933Z,101226.13
2023-02-08T09:02:46.368Z,101231.53
2023-02-08T09:05:12.828Z,101218.72
2023-02-08T09:07:39.241Z,101218.31
2023-02-08T09:10:05.814Z,101215.97
2023-02-08T09:12:32.310Z,101211.97
2023-02-08T09:14:58.714Z,101207.59
2023-02-08T09:17:25.109Z,101205.06
2023-02-08T09:19:51.557Z,101201.81
2023-02-08T09:22:18.665Z,101203.97
2023-02-08T09:24:45.053Z,101203.91
2023-02-08T09:27:11.524Z,101208.16
2023-02-08T09:29:37.910Z,101219.03
2023-02-08T09:32:04.384Z,101216.16
2023-02-08T09:34:30.854Z,101216.66
2023-02-08T09:36:57.268Z,101226.16
2023-02-08T09:39:24.894Z,101216.88
2023-02-08T09:42:21.032Z,101214.84
2023-02-08T09:44:53.437Z,101209.38
2023-02-08T09:47:30.209Z,101214.75
2023-02-08T09:50:02.027Z,101212.88
2023-02-08T09:52:37.718Z,101210.13
2023-02-08T09:55:31.324Z,101211.22
2023-02-08T09:57:58.543Z,101201.41
2023-02-08T10:00:35.802Z,101208.44
2023-02-08T10:03:03.128Z,101203.16
2023-02-08T10:05:30.753Z,101203.13
2023-02-08T10:07:58.526Z,101202.31
2023-02-08T10:11:05.340Z,101192.72
2023-02-08T10:14:09.495Z,101195.16
2023-02-08T10:16:44.983Z,101194.63
2023-02-08T10:19:26.469Z,101180.91
2023-02-08T10:21:56.011Z,101192.47
2023-02-08T10:24:37.645Z,101183.25
2023-02-08T10:27:17.492Z,101174.59
2023-02-08T10:30:21.554Z,101175.31
2023-02-08T10:32:55.333Z,101175.81
2023-02-08T10:35:38.862Z,101187.59
2023-02-08T10:38:17.624Z,101187.19
2023-02-08T10:40:44.480Z,101183.34
2023-02-08T10:43:35.950Z,101181.44
2023-02-08T10:46:05.617Z,101179.09
2023-02-08T10:48:42.360Z,101172.44
2023-02-08T10:51:13.837Z,101162.38
2023-02-08T10:53:40.258Z,101160.06
2023-02-08T10:56:06.875Z,101165.03
2023-02-08T10:58:33.439Z,101164.03
2023-02-08T11:01:01.139Z,101154.22
2023-02-08T11:03:29.309Z,101158.09
2023-02-08T11:05:55.870Z,101145.31
2023-02-08T11:08:24.396Z,101158.38
2023-02-08T11:11:06.109Z,101152.28
2023-02-08T11:13:41.098Z,101145.28
2023-02-08T11:16:10.723Z,101136.66
2023-02-08T11:18:41.281Z,101145.19
2023-02-08T11:21:29.351Z,101145.97
2023-02-08T11:23:57.073Z,101147.66
2023-02-08T11:26:35.376Z,101142.41
2023-02-08T11:29:18.173Z,101130.91
2023-02-08T11:32:15.378Z,101133.22
2023-02-08T11:34:42.085Z,101123.47
2023-02-08T11:37:26.009Z,101127.72
2023-02-08T11:39:59.847Z,101125.78
2023-02-08T11:42:40.227Z,101121.75
2023-02-08T11:45:07.204Z,101118.75
2023-02-08T11:47:35.578Z,101118.75
2023-02-08T11:50:05.277Z,101125.50
2023-02-08T11:52:38.155Z,101119.06
2023-02-08T11:55:16.776Z,101109.53
2023-02-08T11:57:58.419Z,101111.16
2023-02-08T12:00:27.771Z,101106.84
2023-02-08T12:03:14.421Z,101109.84
2023-02-08T12:05:49.854Z,101114.19
2023-02-08T12:08:22.271Z,101106.56
2023-02-08T12:10:58.071Z,101106.09
2023-02-08T12:13:43.219Z,101113.00
2023-02-08T12:16:54.265Z,101113.44
2023-02-08T12:19:23.640Z,101100.88
2023-02-08T12:21:57.703Z,101107.47
2023-02-08T12:24:45.852Z,101102.22
2023-02-08T12:27:27.216Z,101100.56
2023-02-08T12:30:19.038Z,101090.09
2023-02-08T12:33:01.376Z,101094.44
2023-02-08T12:36:03.107Z,101093.06
2023-02-08T12:38:55.219Z,101089.34
2023-02-08T12:41:28.829Z,101073.00
2023-02-08T12:44:17.998Z,101081.53
2023-02-08T12:46:52.548Z,101072.25
2023-02-08T12:49:47.027Z,101073.75
2023-02-08T12:52:25.677Z,101069.13
2023-02-08T12:55:17.438Z,101064.31
2023-02-08T12:57:46.044Z,101063.41
2023-02-08T13:00:33.232Z,101053.19
2023-02-08T13:03:41.369Z,101050.50
2023-02-08T13:06:15.529Z,101051.41
2023-02-08T13:08:44.875Z,101045.53
2023-02-08T13:11:20.110Z,101031.88
2023-02-08T13:13:55.829Z,101042.22
2023-02-08T13:16:26.504Z,101039.97
2023-02-08T13:19:02.701Z,101029.47
2023-02-08T13:21:32.690Z,101041.63
2023-02-08T13:24:00.468Z,101016.00
2023-02-08T13:26:34.320Z,101024.06
2023-02-08T13:29:02.558Z,101020.16
2023-02-08T13:31:32.740Z,101017.00
2023-02-08T13:34:08.166Z,101009.09
2023-02-08T13:36:40.327Z,101009.41
2023-02-08T13:39:29.388Z,101012.97
2023-02-08T13:41:56.500Z,101004.25
2023-02-08T13:44:29.922Z,101005.78
2023-02-08T13:46:56.807Z,101003.63
2023-02-08T13:49:43.387Z,101005.63
2023-02-08T13:52:11.864Z,101013.38
2023-02-08T13:54:38.836Z,101012.06
2023-02-08T13:57:48.066Z,101011.91
2023-02-08T14:00:29.683Z,101004.00
2023-02-08T14:03:03.437Z,101000.41
2023-02-08T14:05:42.248Z,100995.88
2023-02-08T14:08:21.354Z,100984.78
2023-02-08T14:10:59.815Z,100988.53
2023-02-08T14:13:31.578Z,100989.03
2023-02-08T14:16:46.389Z,100987.22
2023-02-08T14:19:15.694Z,100986.94
2023-02-08T14:21:48.705Z,100987.66
2023-02-08T14:24:23.621Z,100983.09
2023-02-08T14:26:50.949Z,100984.00
2023-02-08T14:29:27.646Z,100975.56
2023-02-08T14:31:54.248Z,100974.84
2023-02-08T14:34:34.751Z,100974.44
2023-02-08T14:37:29.293Z,100968.44
2023-02-08T14:40:23.632Z,100965.91
2023-02-08T14:42:56.612Z,100971.75
2023-02-08T14:45:35.686Z,100958.88
2023-02-08T14:48:30.845Z,100972.66
2023-02-08T14:51:06.925Z,100969.97
2023-02-08T14:53:38.321Z,100965.94
2023-02-08T14:56:23.121Z,100972.53
2023-02-08T14:58:56.944Z,100967.63
2023-02-08T15:01:48.183Z,100960.28
2023-02-08T15:04:18.101Z,100955.34
2023-02-08T15:06:49.822Z,100954.44
2023-02-08T15:09:20.846Z,100957.16
2023-02-08T15:11:56.653Z,100962.84
2023-02-08T15:14:23.718Z,100959.41
2023-02-08T15:16:50.578Z,100956.56
2023-02-08T15:19:25.909Z,100956.13
2023-02-08T15:21:52.391Z,100953.88
2023-02-08T15:24:22.527Z,100954.47
2023-02-08T15:26:54.496Z,100952.53
2023-02-08T15:29:39.158Z,100950.13
2023-02-08T15:32:13.249Z,100952.09
2023-02-08T15:34:46.982Z,100952.72
2023-02-08T15:37:17.636Z,100947.47
2023-02-08T15:39:46.349Z,100945.81
2023-02-08T15:42:22.049Z,100944.31
2023-02-08T15:44:48.695Z,100936.22
2023-02-08T15:47:18.757Z,100936.84
2023-02-08T15:49:46.276Z,100944.19
2023-02-08T15:52:17.045Z,100939.38
2023-02-08T15:54:44.507Z,100944.03
2023-02-08T15:57:36.638Z,100940.41
2023-02-08T16:00:06.382Z,100937.13
2023-02-08T16:02:34.286Z,100936.69
2023-02-08T16:05:03.225Z,100939.53
2023-02-08T16:07:41.012Z,100936.81
2023-02-08T16:10:09.933Z,100934.28
2023-02-08T16:12:36.450Z,100943.50
2023-02-08T16:15:02.956Z,100939.78
2023-02-08T16:17:45.182Z,100945.16
2023-02-08T16:20:29.234Z,100943.34
2023-02-08T16:23:02.059Z,100954.13
2023-02-08T16:25:49.639Z,100948.56
2023-02-08T16:28:24.534Z,100952.25
2023-02-08T16:30:51.159Z,100953.47
2023-02-08T16:33:18.114Z,100948.34
2023-02-08T16:35:44.580Z,100952.84
2023-02-08T16:38:21.309Z,100956.91
2023-02-08T16:40:54.573Z,100951.66
2023-02-08T16:43:28.639Z,100951.88
2023-02-08T16:46:26.049Z,100960.84
2023-02-08T16:48:56.852Z,100964.88
2023-02-08T16:51:26.294Z,100962.34
2023-02-08T16:53:55.507Z,100959.19
2023-02-08T16:56:22.291Z,100972.00
2023-02-08T16:58:48.789Z,100968.06
2023-02-08T17:01:15.461Z,100972.22
2023-02-08T17:03:42.132Z,100970.81
2023-02-08T17:06:20.057Z,100971.41
2023-02-08T17:08:46.551Z,100975.97
2023-02-08T17:11:12.930Z,100983.38
2023-02-08T17:13:39.504Z,100984.53
2023-02-08T17:16:06.106Z,100985.91
2023-02-08T17:18:34.821Z,100984.41
2023-02-08T17:21:02.019Z,100984.41
2023-02-08T17:23:28.445Z,100979.38
2023-02-08T17:25:54.887Z,100983.22
2023-02-08T17:28:21.639Z,100984.56
2023-02-08T17:30:49.132Z,100984.72
2023-02-08T17:33:18.321Z,100994.22
2023-02-08T17:35:52.038Z,100993.31
2023-02-08T17:38:19.928Z,100998.38
2023-02-08T17:40:46.689Z,101001.56
2023-02-08T17:43:13.745Z,100998.13
2023-02-08T17:45:42.562Z,100995.28
2023-02-08T17:48:09.317Z,100995.19
2023-02-08T17:50:36.126Z,100994.53
2023-02-08T17:53:03.923Z,100992.41
2023-02-08T17:55:30.398Z,101005.16
2023-02-08T17:57:57.124Z,100997.03
2023-02-08T18:00:24.342Z,100994.19
2023-02-08T18:02:53.307Z,100991.59
2023-02-08T18:05:24.922Z,100991.91
2023-02-08T18:07:52.398Z,100992.56
2023-02-08T18:10:19.362Z,100985.53
2023-02-08T18:12:46.194Z,100988.63
2023-02-08T18:15:15.613Z,100994.84
2023-02-08T18:17:44.288Z,100984.69
2023-02-08T18:20:11.665Z,100991.66
2023-02-08T18:22:38.400Z,100997.19
2023-02-08T18:25:05.472Z,100994.19
2023-02-08T18:27:32.298Z,100999.25
2023-02-08T18:29:58.807Z,100986.06
2023-02-08T18:32:27.972Z,100993.59
2023-02-08T18:34:55.001Z,100992.81
2023-02-08T18:37:21.764Z,100993.06
2023-02-08T18:39:48.990Z,100995.34
2023-02-08T18:42:15.472Z,100997.09
2023-02-08T18:44:42.397Z,100994.44
2023-02-08T18:47:10.012Z,100990.47
2023-02-08T18:49:40.475Z,100997.91
2023-02-08T18:52:09.062Z,100993.44
2023-02-08T18:54:37.144Z,100991.97
2023-02-08T18:57:06.032Z,100990.16
2023-02-08T18:59:33.365Z,100986.56
2023-02-08T19:02:01.611Z,100985.19
2023-02-08T19:04:28.613Z,100982.50
2023-02-08T19:06:55.038Z,100980.38
2023-02-08T19:09:21.531Z,100992.50
2023-02-08T19:11:47.977Z,100985.66
2023-02-08T19:14:15.689Z,100983.84
2023-02-08T19:16:46.146Z,100988.25
2023-02-08T19:19:12.776Z,100981.72
2023-02-08T19:21:39.329Z,100982.47
2023-02-08T19:24:06.181Z,100976.56
2023-02-08T19:26:36.863Z,100983.66
2023-02-08T19:29:06.517Z,100979.88
2023-02-08T19:31:34.048Z,100975.41
2023-02-08T19:34:02.469Z,100976.16
2023-02-08T19:36:31.809Z,100971.13
2023-02-08T19:38:59.658Z,100967.00
2023-02-08T19:41:31.084Z,100972.09
2023-02-08T19:43:57.633Z,100971.50
2023-02-08T19:46:26.648Z,100972.66
2023-02-08T19:48:56.974Z,100978.59
2023-02-08T19:51:23.652Z,100974.88
2023-02-08T19:53:50.136Z,100979.91
2023-02-08T19:56:18.235Z,100977.44
2023-02-08T19:58:45.894Z,100979.19
2023-02-08T20:01:18.485Z,100981.91
2023-02-08T20:03:45.868Z,100979.75
2023-02-08T20:06:15.402Z,100973.47
2023-02-08T20:08:42.082Z,100963.91
2023-02-08T20:11:22.576Z,100964.81
2023-02-08T20:13:49.301Z,100963.91
2023-02-08T20:16:16.415Z,100971.00
2023-02-08T20:18:42.975Z,100959.28
2023-02-08T20:21:09.835Z,100957.69
2023-02-08T20:23:36.382Z,100962.41
2023-02-08T20:26:14.176Z,100955.53
2023-02-08T20:28:44.386Z,100952.09
2023-02-08T20:31:13.863Z,100949.06
2023-02-08T20:33:40.530Z,100953.38
2023-02-08T20:36:09.439Z,100947.81
2023-02-08T20:38:37.271Z,100949.25
2023-02-08T20:41:09.061Z,100956.81
2023-02-08T20:43:35.542Z,100960.47
2023-02-08T20:46:06.055Z,100964.25
2023-02-08T20:48:32.937Z,100963.16
2023-02-08T20:51:08.161Z,100958.13
2023-02-08T20:53:35.853Z,100961.06
2023-02-08T20:56:07.124Z,100951.31
2023-02-08T20:58:33.645Z,100947.91
2023-02-08T21:01:00.213Z,100949.88
2023-02-08T21:03:26.644Z,100949.88
2023-02-08T21:05:53.598Z,100951.34
2023-02-08T21:08:20.024Z,100948.28
2023-02-08T21:10:46.751Z,100952.41
2023-02-08T21:13:13.295Z,100948.81
2023-02-08T21:15:44.031Z,100952.97
2023-02-08T21:18:11.035Z,100941.41
2023-02-08T21:20:39.009Z,100946.47
2023-02-08T21:23:06.875Z,100943.78
2023-02-08T21:25:33.368Z,100935.50
2023-02-08T21:27:59.919Z,100936.56
2023-02-08T21:30:26.397Z,100938.03
2023-02-08T21:32:52.821Z,100932.09
2023-02-08T21:35:19.255Z,100929.75
2023-02-08T21:37:45.741Z,100918.78
2023-02-08T21:40:12.195Z,100927.25
2023-02-08T21:42:38.668Z,100929.91
2023-02-08T21:45:05.409Z,100923.47
2023-02-08T21:47:32.982Z,100920.38
2023-02-08T21:50:34.778Z,100920.75
2023-02-08T21:53:19.730Z,100932.63
2023-02-08T21:55:46.919Z,100925.22
2023-02-08T21:58:13.901Z,100915.69
2023-02-08T22:00:40.672Z,100922.56
2023-02-08T22:03:07.159Z,100915.53
2023-02-08T22:05:33.633Z,100926.88
2023-02-08T22:08:00.135Z,100924.16
2023-02-08T22:10:29.040Z,100921.06
2023-02-08T22:12:55.981Z,100923.59
2023-02-08T22:15:24.242Z,100916.94
2023-02-08T22:17:58.685Z,100915.16
2023-02-08T22:20:25.614Z,100914.03
2023-02-08T22:22:55.054Z,100918.75
2023-02-08T22:25:22.045Z,100919.28
2023-02-08T22:27:48.481Z,100907.03
2023-02-08T22:30:17.011Z,100910.44
2023-02-08T22:32:44.810Z,100908.06
2023-02-08T22:35:12.305Z,100902.66
2023-02-08T22:37:38.983Z,100898.19
2023-02-08T22:40:06.613Z,100896.38
2023-02-08T22:42:33.410Z,100897.84
2023-02-08T22:44:59.845Z,100900.16
2023-02-08T22:47:26.334Z,100898.69
2023-02-08T22:49:56.384Z,100891.66
2023-02-08T22:52:22.763Z,100894.00
2023-02-08T22:54:50.782Z,100891.84
2023-02-08T22:57:17.229Z,100891.69
2023-02-08T22:59:43.679Z,100894.69
2023-02-08T23:02:10.149Z,100892.94
2023-02-08T23:04:37.392Z,100892.19
2023-02-08T23:07:04.341Z,100893.28
2023-02-08T23:09:30.816Z,100885.75
2023-02-08T23:11:57.223Z,100886.63
2023-02-08T23:14:23.622Z,100893.44
2023-02-08T23:16:50.013Z,100888.03
2023-02-08T23:19:17.928Z,100886.75
2023-02-08T23:21:44.670Z,100882.06
2023-02-08T23:24:11.514Z,100891.44
2023-02-08T23:26:37.972Z,100897.56
2023-02-08T23:29:04.654Z,100885.31
2023-02-08T23:31:31.327Z,100891.78
2023-02-08T23:33:59.298Z,100891.44
2023-02-08T23:36:26.570Z,100900.59
2023-02-08T23:38:53.298Z,100894.66
2023-02-08T23:41:21.188Z,100898.66
2023-02-08T23:43:48.708Z,100902.97
2023-02-08T23:46:18.090Z,100900.47
2023-02-08T23:48:45.686Z,100898.66
2023-02-08T23:51:12.140Z,100893.06
2023-02-08T23:53:38.634Z,100893.81
2023-02-08T23:56:08.153Z,100885.00
2023-02-08T23:58:34.855Z,100883.75
